createdAt,value
2022-08-25T00:01:06.689Z,71.01
2022-08-25T00:03:38.563Z,71.76
2022-08-25T00:06:05.794Z,72.14
2022-08-25T00:08:31.948Z,71.73
2022-08-25T00:11:03.088Z,73.11
2022-08-25T00:13:29.828Z,73.25
2022-08-25T00:15:56.034Z,73.75
2022-08-25T00:18:22.254Z,72.92
2022-08-25T00:20:49.044Z,73.74
2022-08-25T00:23:15.560Z,75.21
2022-08-25T00:25:41.891Z,74.20
2022-08-25T00:28:08.725Z,75.25
2022-08-25T00:30:35.040Z,75.55
2022-08-25T00:33:01.201Z,78.19
2022-08-25T00:35:27.383Z,76.70
2022-08-25T00:37:53.571Z,79.13
2022-08-25T00:40:20.059Z,79.35
2022-08-25T00:42:46.262Z,79.44
2022-08-25T00:45:12.442Z,79.96
2022-08-25T00:47:38.617Z,80.39
2022-08-25T00:50:04.827Z,80.45
2022-08-25T00:52:30.980Z,81.02
2022-08-25T00:54:57.178Z,82.74
2022-08-25T00:57:34.017Z,81.39
2022-08-25T01:00:01.175Z,84.09
2022-08-25T01:02:27.371Z,85.18
2022-08-25T01:04:53.573Z,84.56
2022-08-25T01:07:19.744Z,84.69
2022-08-25T01:09:45.884Z,84.47
2022-08-25T01:12:12.184Z,85.11
2022-08-25T01:14:38.350Z,86.49
2022-08-25T01:19:39.605Z,86.79
2022-08-25T01:22:05.791Z,87.02
2022-08-25T01:27:07.058Z,83.24
2022-08-25T01:29:33.253Z,82.26
2022-08-25T01:31:59.414Z,87.76
2022-08-25T01:34:25.572Z,93.27
2022-08-25T01:36:51.735Z,95.74
2022-08-25T01:39:17.907Z,95.97
2022-08-25T01:41:44.091Z,96.02
2022-08-25T01:44:15.865Z,96.54
2022-08-25T01:46:42.846Z,96.23
2022-08-25T01:49:08.984Z,96.80
2022-08-25T01:51:35.151Z,98.44
2022-08-25T01:54:01.302Z,99.06
2022-08-25T01:56:27.456Z,99.08
2022-08-25T01:58:53.628Z,99.56
2022-08-25T02:01:19.834Z,100.00
2022-08-25T02:03:46.501Z,99.02
2022-08-25T02:06:14.262Z,97.57
2022-08-25T02:08:40.731Z,100.00
2022-08-25T02:11:07.039Z,100.00
2022-08-25T02:13:33.186Z,100.00
2022-08-25T02:15:59.339Z,100.00
2022-08-25T02:18:25.526Z,100.00
2022-08-25T02:20:51.680Z,99.93
2022-08-25T02:23:18.019Z,99.06
2022-08-25T02:25:44.184Z,99.45
2022-08-25T02:28:10.384Z,99.75
2022-08-25T02:30:36.583Z,99.64
2022-08-25T02:33:02.805Z,99.69
2022-08-25T02:35:28.975Z,100.00
2022-08-25T02:37:55.146Z,100.00
2022-08-25T02:40:21.405Z,100.00
2022-08-25T02:42:47.652Z,100.00
2022-08-25T02:45:13.807Z,100.00
2022-08-25T02:47:39.994Z,100.00
2022-08-25T02:50:06.182Z,100.00
2022-08-25T02:52:32.327Z,100.00
2022-08-25T02:54:58.487Z,100.00
2022-08-25T02:57:24.672Z,100.00
2022-08-25T02:59:50.857Z,100.00
2022-08-25T03:02:17.024Z,100.00
2022-08-25T03:04:43.232Z,100.00
2022-08-25T03:07:09.413Z,100.00
2022-08-25T03:09:38.717Z,100.00
2022-08-25T03:12:04.885Z,100.00
2022-08-25T03:14:31.041Z,100.00
2022-08-25T03:16:57.285Z,100.00
2022-08-25T03:19:23.545Z,100.00
2022-08-25T03:21:49.696Z,100.00
2022-08-25T03:24:15.867Z,100.00
2022-08-25T03:26:42.744Z,100.00
2022-08-25T03:29:08.895Z,100.00
2022-08-25T03:31:35.101Z,100.00
2022-08-25T03:34:01.320Z,100.00
2022-08-25T03:36:27.617Z,100.00
2022-08-25T03:38:53.773Z,100.00
2022-08-25T03:41:19.932Z,100.00
2022-08-25T03:43:48.726Z,100.00
2022-08-25T03:46:15.214Z,100.00
2022-08-25T03:48:41.391Z,100.00
2022-08-25T03:51:07.587Z,100.00
2022-08-25T03:53:33.728Z,100.00
2022-08-25T03:55:59.924Z,100.00
2022-08-25T03:58:26.063Z,100.00
2022-08-25T04:00:52.484Z,100.00
2022-08-25T04:03:18.680Z,100.00
2022-08-25T04:05:44.911Z,100.00
2022-08-25T04:08:11.107Z,100.00
2022-08-25T04:10:37.265Z,100.00
2022-08-25T04:13:04.990Z,100.00
2022-08-25T04:15:31.157Z,100.00
2022-08-25T04:17:57.339Z,100.00
2022-08-25T04:20:23.531Z,100.00
2022-08-25T04:22:49.698Z,100.00
2022-08-25T04:25:15.895Z,100.00
2022-08-25T04:27:42.063Z,100.00
2022-08-25T04:30:08.230Z,100.00
2022-08-25T04:32:34.426Z,100.00
2022-08-25T04:35:00.604Z,100.00
2022-08-25T04:37:26.783Z,100.00
2022-08-25T04:39:52.991Z,100.00
2022-08-25T04:42:19.214Z,100.00
2022-08-25T04:44:45.400Z,100.00
2022-08-25T04:47:11.568Z,100.00
2022-08-25T04:49:37.773Z,100.00
2022-08-25T04:52:04.245Z,100.00
2022-08-25T04:54:32.537Z,100.00
2022-08-25T04:57:03.584Z,100.00
2022-08-25T04:59:30.631Z,100.00
2022-08-25T05:01:56.963Z,100.00
2022-08-25T05:04:28.571Z,100.00
2022-08-25T05:06:55.196Z,100.00
2022-08-25T05:09:21.738Z,100.00
2022-08-25T05:11:48.030Z,100.00
2022-08-25T05:14:14.782Z,100.00
2022-08-25T05:16:41.971Z,100.00
2022-08-25T05:19:08.215Z,100.00
2022-08-25T05:21:34.421Z,100.00
2022-08-25T05:24:00.580Z,100.00
2022-08-25T05:26:26.761Z,100.00
2022-08-25T05:28:52.942Z,100.00
2022-08-25T05:31:19.156Z,100.00
2022-08-25T05:33:45.411Z,100.00
2022-08-25T05:36:11.583Z,100.00
2022-08-25T05:38:37.742Z,100.00
2022-08-25T05:41:03.952Z,100.00
2022-08-25T05:43:30.094Z,100.00
2022-08-25T05:45:56.283Z,100.00
2022-08-25T05:48:22.528Z,100.00
2022-08-25T05:50:48.725Z,100.00
2022-08-25T05:53:14.890Z,100.00
2022-08-25T05:55:41.087Z,100.00
2022-08-25T05:58:07.543Z,100.00
2022-08-25T06:00:36.613Z,100.00
2022-08-25T06:03:02.847Z,100.00
2022-08-25T06:05:29.036Z,97.41
2022-08-25T06:07:55.212Z,95.43
2022-08-25T06:10:21.400Z,93.71
2022-08-25T06:12:47.559Z,88.16
2022-08-25T06:15:13.757Z,89.51
2022-08-25T06:17:39.931Z,89.08
2022-08-25T06:20:06.131Z,86.44
2022-08-25T06:22:33.257Z,91.55
2022-08-25T06:24:59.433Z,84.94
2022-08-25T06:27:25.594Z,82.47
2022-08-25T06:29:53.415Z,83.40
2022-08-25T06:32:22.246Z,80.02
2022-08-25T06:34:50.766Z,81.33
2022-08-25T06:37:25.311Z,79.71
2022-08-25T06:42:17.874Z,76.00
2022-08-25T06:44:44.086Z,77.71
2022-08-25T06:47:10.369Z,76.32
2022-08-25T06:49:36.576Z,77.46
2022-08-25T06:52:02.786Z,74.56
2022-08-25T06:54:28.957Z,72.73
2022-08-25T06:56:55.112Z,70.54
2022-08-25T06:59:21.380Z,70.94
2022-08-25T07:01:49.727Z,71.39
2022-08-25T07:04:16.481Z,70.56
2022-08-25T07:06:42.721Z,72.73
2022-08-25T07:09:08.883Z,68.79
2022-08-25T07:11:35.054Z,66.83
2022-08-25T07:14:01.234Z,67.19
2022-08-25T07:16:29.768Z,65.67
2022-08-25T07:18:57.190Z,66.29
2022-08-25T07:21:25.750Z,66.40
2022-08-25T07:23:55.176Z,66.99
2022-08-25T07:26:41.389Z,65.79
2022-08-25T07:29:07.496Z,66.22
2022-08-25T07:31:33.910Z,64.26
2022-08-25T07:34:00.170Z,62.57
2022-08-25T07:36:26.330Z,63.43
2022-08-25T07:38:52.522Z,63.29
2022-08-25T07:41:18.701Z,62.05
2022-08-25T07:43:44.909Z,60.78
2022-08-25T07:46:13.033Z,59.99
2022-08-25T07:48:39.231Z,59.39
2022-08-25T07:51:05.621Z,61.67
2022-08-25T07:53:33.745Z,59.79
2022-08-25T07:55:59.993Z,57.61
2022-08-25T07:58:26.258Z,55.89
2022-08-25T08:00:52.412Z,53.13
2022-08-25T08:03:42.224Z,52.86
2022-08-25T08:06:05.614Z,51.70
2022-08-25T08:08:31.776Z,52.11
2022-08-25T08:11:04.660Z,50.67
2022-08-25T08:13:31.441Z,49.45
2022-08-25T08:15:57.645Z,49.51
2022-08-25T08:18:23.874Z,49.90
2022-08-25T08:20:51.163Z,51.22
2022-08-25T08:23:17.516Z,50.85
2022-08-25T08:25:43.725Z,49.49
2022-08-25T08:28:10.947Z,48.27
2022-08-25T08:30:37.251Z,49.15
2022-08-25T08:33:10.109Z,50.56
2022-08-25T08:35:38.259Z,51.45
2022-08-25T08:38:10.306Z,52.34
2022-08-25T08:40:41.294Z,50.96
2022-08-25T08:43:07.644Z,55.65
2022-08-25T08:45:44.475Z,51.03
2022-08-25T08:48:10.666Z,52.12
2022-08-25T08:50:37.015Z,51.22
2022-08-25T08:53:04.064Z,52.21
2022-08-25T08:55:31.418Z,50.88
2022-08-25T08:57:57.639Z,51.74
2022-08-25T09:00:24.768Z,52.23
2022-08-25T09:02:51.926Z,52.30
2022-08-25T09:05:18.432Z,50.65
2022-08-25T09:07:44.861Z,52.07
2022-08-25T09:10:13.501Z,51.78
2022-08-25T09:12:39.897Z,50.52
2022-08-25T09:15:12.730Z,49.95
2022-08-25T09:17:39.988Z,50.38
2022-08-25T09:20:06.195Z,49.60
2022-08-25T09:22:46.804Z,50.39
2022-08-25T09:25:18.760Z,48.89
2022-08-25T09:27:48.517Z,48.27
2022-08-25T09:30:14.787Z,48.35
2022-08-25T09:32:41.049Z,50.17
2022-08-25T09:35:14.969Z,50.89
2022-08-25T09:37:41.161Z,49.66
2022-08-25T09:40:08.089Z,46.71
2022-08-25T09:42:34.297Z,46.46
2022-08-25T09:45:00.537Z,47.57
2022-08-25T09:47:26.685Z,48.50
2022-08-25T09:49:52.900Z,48.43
2022-08-25T09:52:19.139Z,46.16
2022-08-25T09:54:47.748Z,46.02
2022-08-25T09:57:14.046Z,46.36
2022-08-25T09:59:57.337Z,47.41
2022-08-25T10:02:24.073Z,46.26
2022-08-25T10:04:50.293Z,46.44
2022-08-25T10:07:16.856Z,46.83
2022-08-25T10:09:43.042Z,45.63
2022-08-25T10:12:09.188Z,45.18
2022-08-25T10:14:37.365Z,46.31
2022-08-25T10:17:03.858Z,47.93
2022-08-25T10:19:30.347Z,46.16
2022-08-25T10:21:56.925Z,45.03
2022-08-25T10:24:23.133Z,44.78
2022-08-25T10:26:49.822Z,47.08
2022-08-25T10:29:15.978Z,46.99
2022-08-25T10:31:42.154Z,42.22
2022-08-25T10:34:08.310Z,43.60
2022-08-25T10:36:34.580Z,43.39
2022-08-25T10:39:01.759Z,43.37
2022-08-25T10:41:31.275Z,43.52
2022-08-25T10:43:58.577Z,44.42
2022-08-25T10:46:25.166Z,42.95
2022-08-25T10:48:51.398Z,44.35
2022-08-25T10:51:21.484Z,47.21
2022-08-25T10:53:51.108Z,41.94
2022-08-25T10:56:17.688Z,41.75
2022-08-25T10:58:43.869Z,41.71
2022-08-25T11:01:10.122Z,43.26
2022-08-25T11:03:36.378Z,45.27
2022-08-25T11:06:04.908Z,45.67
2022-08-25T11:08:31.101Z,46.34
2022-08-25T11:10:57.259Z,46.82
2022-08-25T11:13:23.447Z,47.32
2022-08-25T11:16:13.250Z,47.53
2022-08-25T11:18:36.253Z,46.46
2022-08-25T11:21:02.449Z,44.92
2022-08-25T11:23:28.625Z,45.09
2022-08-25T11:25:57.547Z,43.43
2022-08-25T11:28:23.706Z,43.16
2022-08-25T11:30:50.623Z,43.49
2022-08-25T11:33:16.868Z,40.04
2022-08-25T11:35:45.755Z,39.85
2022-08-25T11:38:11.935Z,43.76
2022-08-25T11:40:38.257Z,39.49
2022-08-25T11:43:04.574Z,40.73
2022-08-25T11:45:34.305Z,40.97
2022-08-25T11:48:00.495Z,42.80
2022-08-25T11:50:30.232Z,42.75
2022-08-25T11:52:56.924Z,42.81
2022-08-25T11:55:24.097Z,42.30
2022-08-25T11:57:53.283Z,42.49
2022-08-25T12:00:24.137Z,42.97
2022-08-25T12:02:50.445Z,44.33
2022-08-25T12:05:16.757Z,42.90
2022-08-25T12:07:43.124Z,46.08
2022-08-25T12:10:09.311Z,43.66
2022-08-25T12:12:35.503Z,46.03
2022-08-25T12:15:01.669Z,48.50
2022-08-25T12:17:30.283Z,44.14
2022-08-25T12:19:56.486Z,45.28
2022-08-25T12:22:22.664Z,44.91
2022-08-25T12:24:49.120Z,45.39
2022-08-25T12:27:15.450Z,45.96
2022-08-25T12:29:41.672Z,45.16
2022-08-25T12:32:09.341Z,40.69
2022-08-25T12:34:35.635Z,39.57
2022-08-25T12:37:02.347Z,38.69
2022-08-25T12:39:32.723Z,39.56
2022-08-25T12:41:58.952Z,36.61
2022-08-25T12:44:27.503Z,38.83
2022-08-25T12:46:53.736Z,38.34
2022-08-25T12:49:19.912Z,40.42
2022-08-25T12:51:48.679Z,39.47
2022-08-25T12:54:16.029Z,39.08
2022-08-25T12:56:47.679Z,37.00
2022-08-25T12:59:14.073Z,35.73
2022-08-25T13:01:40.347Z,36.65
2022-08-25T13:04:06.897Z,35.54
2022-08-25T13:06:35.598Z,34.71
2022-08-25T13:09:02.182Z,35.77
2022-08-25T13:11:34.550Z,35.69
2022-08-25T13:14:00.715Z,35.10
2022-08-25T13:16:29.707Z,34.03
2022-08-25T13:18:56.133Z,33.89
2022-08-25T13:21:22.289Z,36.43
2022-08-25T13:23:48.590Z,36.91
2022-08-25T13:26:15.154Z,38.18
2022-08-25T13:28:41.959Z,35.68
2022-08-25T13:31:08.308Z,35.75
2022-08-25T13:33:35.202Z,34.81
2022-08-25T13:38:33.257Z,36.30
2022-08-25T13:41:01.747Z,39.45
2022-08-25T13:43:28.577Z,37.91
2022-08-25T13:45:55.170Z,36.82
2022-08-25T13:48:23.275Z,37.02
2022-08-25T13:50:52.889Z,38.18
2022-08-25T13:53:20.186Z,37.61
2022-08-25T13:55:51.405Z,34.22
2022-08-25T13:58:24.291Z,32.33
2022-08-25T14:00:50.726Z,33.53
2022-08-25T14:03:20.092Z,32.98
2022-08-25T14:05:56.206Z,32.12
2022-08-25T14:08:25.922Z,32.71
2022-08-25T14:10:54.485Z,32.19
2022-08-25T14:13:20.633Z,32.86
2022-08-25T14:15:46.846Z,32.62
2022-08-25T14:18:13.829Z,32.66
2022-08-25T14:20:41.684Z,33.40
2022-08-25T14:23:09.983Z,31.95
2022-08-25T14:25:36.566Z,32.10
2022-08-25T14:28:07.466Z,31.71
2022-08-25T14:30:46.216Z,33.63
2022-08-25T14:33:12.715Z,33.49
2022-08-25T14:35:38.896Z,35.08
2022-08-25T14:38:05.320Z,37.65
2022-08-25T14:40:34.325Z,36.49
2022-08-25T14:43:00.761Z,36.50
2022-08-25T14:45:28.437Z,33.84
2022-08-25T14:47:56.470Z,35.54
2022-08-25T14:50:25.297Z,31.42
2022-08-25T14:52:53.813Z,32.35
2022-08-25T14:55:31.620Z,31.54
2022-08-25T14:57:58.617Z,31.26
2022-08-25T15:00:25.223Z,32.92
2022-08-25T15:02:52.017Z,32.40
2022-08-25T15:05:19.313Z,30.52
2022-08-25T15:07:45.860Z,31.32
2022-08-25T15:10:13.536Z,31.66
2022-08-25T15:12:47.406Z,30.50
2022-08-25T15:15:14.148Z,29.92
2022-08-25T15:17:40.338Z,29.37
2022-08-25T15:20:11.143Z,28.75
2022-08-25T15:22:37.406Z,29.26
2022-08-25T15:25:04.267Z,28.29
2022-08-25T15:27:31.020Z,28.71
2022-08-25T15:29:57.503Z,28.43
2022-08-25T15:32:23.794Z,30.97
2022-08-25T15:34:50.589Z,28.24
2022-08-25T15:37:16.762Z,28.92
2022-08-25T15:39:42.917Z,27.23
2022-08-25T15:42:10.752Z,29.65
2022-08-25T15:44:37.897Z,30.00
2022-08-25T15:47:05.411Z,28.16
2022-08-25T15:49:31.788Z,27.83
2022-08-25T15:51:59.850Z,29.57
2022-08-25T15:54:26.771Z,28.57
2022-08-25T15:56:53.185Z,27.89
2022-08-25T15:59:21.650Z,28.29
2022-08-25T16:01:48.079Z,29.10
2022-08-25T16:04:14.286Z,29.83
2022-08-25T16:06:40.473Z,30.20
2022-08-25T16:09:06.691Z,29.28
2022-08-25T16:11:34.321Z,30.83
2022-08-25T16:14:01.351Z,32.39
2022-08-25T16:16:28.093Z,32.87
2022-08-25T16:18:54.319Z,33.92
2022-08-25T16:21:20.717Z,33.06
2022-08-25T16:23:46.889Z,33.04
2022-08-25T16:26:14.952Z,34.10
2022-08-25T16:28:41.109Z,33.31
2022-08-25T16:31:10.174Z,33.39
2022-08-25T16:33:37.127Z,34.22
2022-08-25T16:36:03.303Z,33.94
2022-08-25T16:38:29.489Z,34.47
2022-08-25T16:40:55.655Z,35.20
2022-08-25T16:43:21.826Z,35.44
2022-08-25T16:45:48.012Z,36.66
2022-08-25T16:48:14.182Z,36.46
2022-08-25T16:50:40.344Z,36.29
2022-08-25T16:53:07.976Z,36.40
2022-08-25T16:55:39.484Z,36.53
2022-08-25T16:58:06.442Z,38.22
2022-08-25T17:00:32.853Z,37.06
2022-08-25T17:02:59.325Z,36.42
2022-08-25T17:05:25.517Z,38.29
2022-08-25T17:07:53.522Z,37.37
2022-08-25T17:10:20.315Z,37.34
2022-08-25T17:12:49.633Z,36.63
2022-08-25T17:15:15.788Z,38.68
2022-08-25T17:17:47.647Z,38.97
2022-08-25T17:20:13.845Z,38.76
2022-08-25T17:22:43.367Z,38.64
2022-08-25T17:25:09.549Z,40.01
2022-08-25T17:27:35.705Z,38.06
2022-08-25T17:30:01.873Z,40.26
2022-08-25T17:32:28.699Z,40.68
2022-08-25T17:34:56.528Z,41.27
2022-08-25T17:37:22.670Z,41.50
2022-08-25T17:39:48.861Z,42.46
2022-08-25T17:42:16.777Z,42.84
2022-08-25T17:44:44.391Z,41.45
2022-08-25T17:47:10.947Z,40.16
2022-08-25T17:49:37.150Z,40.53
2022-08-25T17:52:03.329Z,40.29
2022-08-25T17:54:29.509Z,40.24
2022-08-25T17:56:55.684Z,40.10
2022-08-25T17:59:21.876Z,42.40
2022-08-25T18:01:48.200Z,43.66
2022-08-25T18:04:17.491Z,42.60
2022-08-25T18:06:44.260Z,43.35
2022-08-25T18:09:11.240Z,44.50
2022-08-25T18:11:37.402Z,45.20
2022-08-25T18:14:03.599Z,44.96
2022-08-25T18:16:29.795Z,47.15
2022-08-25T18:18:55.960Z,46.48
2022-08-25T18:21:23.355Z,46.99
2022-08-25T18:23:49.551Z,47.92
2022-08-25T18:26:15.694Z,47.87
2022-08-25T18:28:43.849Z,48.73
2022-08-25T18:31:10.231Z,49.66
2022-08-25T18:33:36.421Z,48.84
2022-08-25T18:36:02.583Z,48.89
2022-08-25T18:38:28.771Z,50.97
2022-08-25T18:40:54.934Z,50.83
2022-08-25T18:43:21.142Z,51.71
2022-08-25T18:45:47.352Z,52.21
2022-08-25T18:48:13.511Z,53.29
2022-08-25T18:50:40.495Z,53.30
2022-08-25T18:53:07.092Z,54.40
2022-08-25T18:55:33.593Z,53.64
2022-08-25T18:57:59.756Z,54.52
2022-08-25T19:00:25.915Z,55.53
2022-08-25T19:02:53.133Z,55.91
2022-08-25T19:05:19.947Z,56.81
2022-08-25T19:07:46.139Z,57.47
2022-08-25T19:10:17.871Z,58.11
2022-08-25T19:12:45.439Z,57.73
2022-08-25T19:15:11.925Z,59.19
2022-08-25T19:17:38.323Z,59.50
2022-08-25T19:20:04.496Z,60.08
2022-08-25T19:22:41.774Z,59.72
2022-08-25T19:25:08.459Z,60.96
2022-08-25T19:27:35.504Z,61.08
2022-08-25T19:30:01.683Z,61.43
2022-08-25T19:32:27.842Z,62.30
2022-08-25T19:34:54.010Z,60.97
2022-08-25T19:37:20.471Z,61.47
2022-08-25T19:39:53.001Z,62.00
2022-08-25T19:42:36.985Z,62.00
2022-08-25T19:45:04.476Z,62.37
2022-08-25T19:47:30.690Z,62.41
2022-08-25T19:49:57.943Z,63.47
2022-08-25T19:52:24.101Z,63.35
2022-08-25T19:54:52.918Z,64.15
2022-08-25T19:57:28.570Z,65.35
2022-08-25T20:00:05.236Z,64.34
2022-08-25T20:02:32.244Z,64.74
2022-08-25T20:04:58.484Z,65.68
2022-08-25T20:07:26.062Z,66.67
2022-08-25T20:09:52.243Z,66.48
2022-08-25T20:12:18.415Z,68.63
2022-08-25T20:14:44.581Z,70.27
2022-08-25T20:17:13.109Z,71.29
2022-08-25T20:19:49.527Z,70.91
2022-08-25T20:22:17.397Z,71.58
2022-08-25T20:24:44.407Z,70.49
2022-08-25T20:27:10.598Z,71.67
2022-08-25T20:29:38.737Z,72.29
2022-08-25T20:32:04.914Z,71.88
2022-08-25T20:34:31.303Z,73.82
2022-08-25T20:36:58.861Z,74.31
2022-08-25T20:39:25.058Z,74.25
2022-08-25T20:41:51.485Z,74.48
2022-08-25T20:44:17.637Z,75.00
2022-08-25T20:46:43.819Z,74.29
2022-08-25T20:49:09.968Z,74.39
2022-08-25T20:51:38.655Z,75.75
2022-08-25T20:54:04.820Z,74.56
2022-08-25T20:56:31.511Z,75.28
2022-08-25T20:58:57.659Z,76.40
2022-08-25T21:01:23.852Z,76.50
2022-08-25T21:03:50.079Z,75.42
2022-08-25T21:06:17.136Z,76.10
2022-08-25T21:08:46.589Z,76.33
2022-08-25T21:11:13.161Z,76.66
2022-08-25T21:13:39.306Z,77.18
2022-08-25T21:16:09.080Z,78.39
2022-08-25T21:18:35.495Z,79.04
2022-08-25T21:21:01.667Z,79.99
2022-08-25T21:23:31.241Z,82.02
2022-08-25T21:25:57.401Z,77.42
2022-08-25T21:28:24.022Z,75.70
2022-08-25T21:30:50.236Z,75.64
2022-08-25T21:33:16.440Z,78.04
2022-08-25T21:35:43.006Z,79.57
2022-08-25T21:38:09.187Z,80.29
2022-08-25T21:40:35.351Z,77.81
2022-08-25T21:43:01.692Z,78.43
2022-08-25T21:45:27.893Z,79.73
2022-08-25T21:48:02.181Z,82.59
2022-08-25T21:50:28.345Z,82.37
2022-08-25T21:52:54.949Z,82.84
2022-08-25T21:55:21.120Z,83.79
2022-08-25T21:57:48.194Z,85.06
2022-08-25T22:00:14.360Z,86.21
2022-08-25T22:02:43.917Z,86.30
2022-08-25T22:05:10.390Z,87.50
2022-08-25T22:07:41.685Z,88.15
2022-08-25T22:10:08.337Z,88.37
2022-08-25T22:12:43.157Z,87.79
2022-08-25T22:15:09.297Z,89.96
2022-08-25T22:17:38.655Z,90.72
2022-08-25T22:20:05.735Z,89.91
2022-08-25T22:22:31.893Z,91.12
2022-08-25T22:24:58.065Z,89.11
2022-08-25T22:27:25.305Z,87.09
2022-08-25T22:29:51.478Z,88.42
2022-08-25T22:32:17.650Z,90.69
2022-08-25T22:34:43.856Z,92.00
2022-08-25T22:37:10.070Z,92.40
2022-08-25T22:39:36.239Z,92.80
2022-08-25T22:42:06.352Z,93.15
2022-08-25T22:44:32.514Z,94.00
2022-08-25T22:46:59.180Z,94.64
2022-08-25T22:49:25.349Z,94.79
2022-08-25T22:51:51.503Z,95.12
2022-08-25T22:54:21.350Z,95.79
2022-08-25T22:56:47.528Z,96.76
2022-08-25T22:59:13.706Z,93.31
2022-08-25T23:01:39.888Z,94.35
2022-08-25T23:04:06.349Z,95.38
2022-08-25T23:06:32.554Z,96.04
2022-08-25T23:08:58.741Z,95.83
2022-08-25T23:11:24.902Z,97.29
2022-08-25T23:13:51.093Z,95.78
2022-08-25T23:16:17.283Z,95.61
2022-08-25T23:18:46.186Z,96.13
2022-08-25T23:21:12.457Z,96.31
2022-08-25T23:23:44.546Z,97.86
2022-08-25T23:26:10.739Z,97.88
2022-08-25T23:28:36.948Z,96.80
2022-08-25T23:31:03.166Z,98.87
2022-08-25T23:33:29.611Z,100.00
2022-08-25T23:35:56.047Z,97.80
2022-08-25T23:38:23.879Z,99.52
2022-08-25T23:40:50.069Z,99.56
2022-08-25T23:43:16.241Z,100.00
2022-08-25T23:45:42.481Z,100.00
2022-08-25T23:48:08.656Z,100.00
2022-08-25T23:50:34.861Z,100.00
2022-08-25T23:53:01.141Z,100.00
2022-08-25T23:55:33.054Z,100.00
2022-08-25T23:58:00.216Z,100.00
